createdAt,value
2019-02-20T00:00:10.026Z,8.28
2019-02-20T00:02:57.378Z,8.22
2019-02-20T00:05:45.008Z,8.11
2019-02-20T00:08:32.126Z,8.05
2019-02-20T00:11:19.446Z,7.95
2019-02-20T00:14:07.078Z,7.80
2019-02-20T00:16:54.908Z,7.63
2019-02-20T00:19:42.537Z,7.49
2019-02-20T00:22:29.961Z,7.47
2019-02-20T00:25:17.389Z,7.47
2019-02-20T00:28:04.913Z,7.40
2019-02-20T00:30:52.343Z,7.27
2019-02-20T00:33:39.861Z,7.22
2019-02-20T00:36:27.082Z,7.15
2019-02-20T00:39:14.811Z,7.00
2019-02-20T00:42:02.254Z,6.96
2019-02-20T00:44:57.547Z,6.86
2019-02-20T00:47:52.551Z,6.86
2019-02-20T00:50:41.821Z,6.78
2019-02-20T00:53:30.756Z,6.80
2019-02-20T00:56:18.301Z,6.79
2019-02-20T00:59:06.039Z,6.66
2019-02-20T01:01:53.665Z,6.72
2019-02-20T01:04:40.680Z,6.69
2019-02-20T01:07:28.207Z,6.79
2019-02-20T01:10:15.833Z,6.76
2019-02-20T01:13:03.175Z,6.66
2019-02-20T01:15:50.886Z,6.55
2019-02-20T01:18:38.617Z,6.50
2019-02-20T01:21:26.145Z,6.50
2019-02-20T01:24:13.567Z,6.49
2019-02-20T01:27:02.322Z,6.48
2019-02-20T01:29:50.055Z,6.44
2019-02-20T01:32:37.068Z,6.46
2019-02-20T01:35:24.902Z,6.42
2019-02-20T01:38:12.124Z,6.42
2019-02-20T01:40:59.549Z,6.47
2019-02-20T01:43:46.663Z,6.50
2019-02-20T01:46:33.888Z,6.55
2019-02-20T01:49:21.717Z,6.53
2019-02-20T01:52:08.835Z,6.54
2019-02-20T01:54:56.666Z,6.59
2019-02-20T01:57:43.886Z,6.56
2019-02-20T02:00:31.419Z,6.54
2019-02-20T02:03:18.837Z,6.52
2019-02-20T02:06:06.261Z,6.52
2019-02-20T02:08:53.892Z,6.57
2019-02-20T02:11:41.315Z,6.52
2019-02-20T02:14:28.953Z,6.52
2019-02-20T02:17:16.265Z,6.53
2019-02-20T02:20:04.099Z,6.51
2019-02-20T02:22:51.315Z,6.49
2019-02-20T02:25:38.678Z,6.55
2019-02-20T02:28:26.391Z,6.50
2019-02-20T02:31:14.035Z,6.49
2019-02-20T02:34:01.836Z,6.47
2019-02-20T02:36:49.363Z,6.51
2019-02-20T02:39:36.989Z,6.51
2019-02-20T02:42:24.412Z,6.51
2019-02-20T02:45:12.246Z,6.51
2019-02-20T02:48:00.083Z,6.48
2019-02-20T02:50:47.504Z,6.45
2019-02-20T02:53:35.039Z,6.41
2019-02-20T02:56:23.077Z,6.44
2019-02-20T02:59:10.594Z,6.40
2019-02-20T03:01:58.251Z,6.41
2019-02-20T03:04:45.341Z,6.35
2019-02-20T03:07:33.175Z,6.37
2019-02-20T03:10:20.497Z,6.44
2019-02-20T03:13:07.614Z,6.44
2019-02-20T03:15:55.141Z,6.45
2019-02-20T03:18:42.874Z,6.42
2019-02-20T03:21:30.606Z,6.42
2019-02-20T03:24:18.230Z,6.33
2019-02-20T03:27:05.580Z,6.41
2019-02-20T03:29:53.189Z,6.43
2019-02-20T03:32:40.610Z,6.44
2019-02-20T03:35:27.598Z,6.32
2019-02-20T03:38:15.458Z,6.36
2019-02-20T03:41:02.482Z,6.35
2019-02-20T03:43:50.200Z,6.39
2019-02-20T03:46:37.725Z,6.40
2019-02-20T03:49:25.459Z,6.34
2019-02-20T03:52:12.779Z,6.34
2019-02-20T03:55:00.715Z,6.34
2019-02-20T03:57:47.936Z,6.31
2019-02-20T04:00:35.463Z,6.25
2019-02-20T04:03:22.783Z,6.17
2019-02-20T04:06:10.515Z,6.29
2019-02-20T04:08:57.736Z,6.41
2019-02-20T04:11:45.161Z,6.42
2019-02-20T04:14:32.789Z,6.30
2019-02-20T04:17:20.213Z,6.33
2019-02-20T04:20:08.460Z,6.28
2019-02-20T04:22:55.881Z,6.15
2019-02-20T04:25:43.423Z,6.19
2019-02-20T04:28:31.138Z,6.22
2019-02-20T04:31:19.072Z,6.23
2019-02-20T04:34:06.904Z,6.18
2019-02-20T04:36:54.538Z,6.20
2019-02-20T04:39:42.265Z,6.23
2019-02-20T04:42:30.156Z,6.35
2019-02-20T04:45:17.934Z,6.40
2019-02-20T04:48:05.769Z,6.50
2019-02-20T04:50:53.317Z,6.44
2019-02-20T04:53:40.415Z,6.46
2019-02-20T04:56:27.942Z,6.55
2019-02-20T04:59:15.261Z,6.58
2019-02-20T05:02:03.531Z,6.56
2019-02-20T05:04:50.662Z,6.58
2019-02-20T05:07:38.353Z,6.57
2019-02-20T05:10:25.772Z,6.51
2019-02-20T05:13:13.198Z,6.27
2019-02-20T05:16:00.627Z,6.30
2019-02-20T05:18:48.159Z,6.17
2019-02-20T05:21:35.881Z,6.45
2019-02-20T05:24:25.030Z,6.55
2019-02-20T05:27:12.061Z,6.59
2019-02-20T05:29:59.484Z,6.71
2019-02-20T05:32:47.215Z,6.68
2019-02-20T05:35:34.334Z,6.73
2019-02-20T05:38:22.062Z,6.58
2019-02-20T05:41:09.802Z,6.73
2019-02-20T05:43:57.223Z,6.84
2019-02-20T05:46:44.334Z,6.75
2019-02-20T05:49:31.554Z,6.92
2019-02-20T05:52:18.983Z,7.06
2019-02-20T05:55:07.677Z,7.11
2019-02-20T05:57:55.259Z,7.10
2019-02-20T06:00:43.200Z,7.12
2019-02-20T06:03:30.842Z,7.15
2019-02-20T06:06:18.557Z,7.18
2019-02-20T06:09:06.391Z,7.01
2019-02-20T06:11:54.022Z,7.01
2019-02-20T06:14:41.654Z,6.95
2019-02-20T06:17:30.200Z,7.05
2019-02-20T06:20:18.035Z,6.92
2019-02-20T06:23:05.561Z,6.82
2019-02-20T06:25:53.088Z,6.86
2019-02-20T06:28:40.726Z,6.99
2019-02-20T06:31:28.549Z,7.12
2019-02-20T06:34:16.178Z,7.13
2019-02-20T06:37:03.911Z,7.24
2019-02-20T06:39:51.642Z,7.26
2019-02-20T06:42:39.076Z,7.28
2019-02-20T06:45:26.998Z,7.30
2019-02-20T06:48:14.425Z,7.33
2019-02-20T06:51:02.360Z,7.32
2019-02-20T06:53:49.887Z,7.36
2019-02-20T06:56:37.516Z,7.39
2019-02-20T06:59:24.590Z,7.43
2019-02-20T07:02:12.483Z,7.38
2019-02-20T07:05:31.345Z,7.40
2019-02-20T07:08:30.637Z,7.37
2019-02-20T07:11:47.141Z,7.36
2019-02-20T07:14:49.508Z,7.35
2019-02-20T07:17:48.497Z,7.29
2019-02-20T07:21:06.552Z,7.29
2019-02-20T07:24:02.873Z,7.28
2019-02-20T07:27:16.106Z,7.15
2019-02-20T07:30:05.274Z,7.18
2019-02-20T07:32:52.337Z,7.06
2019-02-20T07:35:40.019Z,6.88
2019-02-20T07:38:27.451Z,6.98
2019-02-20T07:41:15.995Z,7.17
2019-02-20T07:44:03.313Z,7.34
2019-02-20T07:46:50.741Z,7.32
2019-02-20T07:49:38.471Z,7.64
2019-02-20T07:52:25.689Z,7.68
2019-02-20T07:55:13.926Z,7.53
2019-02-20T07:58:01.373Z,7.37
2019-02-20T08:00:49.093Z,7.49
2019-02-20T08:03:36.617Z,7.50
2019-02-20T08:06:24.563Z,7.29
2019-02-20T08:09:12.181Z,7.76
2019-02-20T08:11:59.313Z,8.07
2019-02-20T08:14:47.346Z,8.18
2019-02-20T08:17:34.771Z,8.23
2019-02-20T08:20:22.608Z,8.17
2019-02-20T08:23:10.015Z,8.25
2019-02-20T08:25:59.670Z,8.44
2019-02-20T08:28:46.196Z,8.31
2019-02-20T08:31:33.927Z,8.36
2019-02-20T08:34:20.948Z,8.60
2019-02-20T08:37:08.982Z,8.52
2019-02-20T08:39:56.319Z,8.68
2019-02-20T08:42:43.692Z,8.80
2019-02-20T08:45:31.161Z,8.97
2019-02-20T08:48:18.882Z,8.94
2019-02-20T08:51:06.317Z,8.88
2019-02-20T08:53:54.137Z,8.88
2019-02-20T08:56:41.979Z,8.66
2019-02-20T08:59:28.887Z,8.71
2019-02-20T09:02:16.331Z,8.45
2019-02-20T09:05:05.169Z,8.58
2019-02-20T09:07:53.001Z,8.88
2019-02-20T09:10:40.391Z,8.92
2019-02-20T09:13:28.053Z,8.48
2019-02-20T09:16:15.892Z,8.94
2019-02-20T09:19:03.415Z,8.96
2019-02-20T09:21:51.144Z,9.14
2019-02-20T09:24:38.260Z,9.21
2019-02-20T09:27:26.053Z,9.58
2019-02-20T09:30:16.651Z,9.91
2019-02-20T09:33:04.122Z,10.07
2019-02-20T09:35:51.746Z,9.91
2019-02-20T09:38:39.486Z,10.22
2019-02-20T09:41:27.211Z,10.25
2019-02-20T09:44:14.639Z,10.24
2019-02-20T09:47:01.751Z,10.67
2019-02-20T09:49:49.378Z,10.70
2019-02-20T09:52:36.802Z,10.73
2019-02-20T09:55:24.252Z,10.92
2019-02-20T09:58:12.063Z,11.24
2019-02-20T10:00:59.400Z,11.39
2019-02-20T10:03:47.117Z,11.30
2019-02-20T10:06:34.960Z,11.13
2019-02-20T10:09:22.166Z,11.19
2019-02-20T10:12:10.001Z,11.42
2019-02-20T10:14:57.732Z,11.52
2019-02-20T10:17:45.361Z,11.45
2019-02-20T10:20:33.092Z,11.64
2019-02-20T10:23:20.108Z,11.68
2019-02-20T10:26:07.535Z,11.66
2019-02-20T10:28:55.179Z,11.02
2019-02-20T10:31:42.595Z,11.33
2019-02-20T10:34:30.212Z,11.55
2019-02-20T10:37:17.849Z,11.47
2019-02-20T10:40:08.097Z,11.54
2019-02-20T10:42:55.659Z,11.44
2019-02-20T10:45:43.063Z,11.68
2019-02-20T10:48:30.816Z,11.68
2019-02-20T10:51:18.238Z,11.32
2019-02-20T10:54:05.870Z,11.49
2019-02-20T10:56:53.294Z,11.47
2019-02-20T10:59:40.715Z,11.22
2019-02-20T11:02:28.347Z,11.44
2019-02-20T11:05:15.778Z,11.76
2019-02-20T11:08:02.890Z,11.45
2019-02-20T11:10:50.004Z,11.75
2019-02-20T11:13:37.324Z,12.06
2019-02-20T11:16:25.059Z,12.06
2019-02-20T11:19:12.482Z,12.10
2019-02-20T11:22:00.163Z,12.04
2019-02-20T11:24:47.126Z,11.81
2019-02-20T11:27:34.854Z,12.00
2019-02-20T11:30:24.431Z,11.36
2019-02-20T11:33:12.129Z,11.44
2019-02-20T11:35:59.584Z,11.74
2019-02-20T11:38:47.109Z,12.05
2019-02-20T11:41:34.746Z,11.86
2019-02-20T11:44:22.575Z,12.07
2019-02-20T11:47:10.304Z,12.50
2019-02-20T11:49:57.625Z,12.57
2019-02-20T11:52:45.151Z,12.65
2019-02-20T11:55:32.596Z,12.48
2019-02-20T11:58:20.102Z,12.51
2019-02-20T12:01:07.734Z,12.80
2019-02-20T12:03:55.386Z,13.06
2019-02-20T12:06:42.889Z,13.01
2019-02-20T12:09:30.336Z,12.94
2019-02-20T12:12:17.941Z,13.32
2019-02-20T12:15:07.138Z,13.35
2019-02-20T12:17:54.229Z,13.26
2019-02-20T12:20:41.952Z,13.09
2019-02-20T12:23:36.547Z,13.16
2019-02-20T12:26:19.250Z,13.09
2019-02-20T12:29:06.582Z,13.14
2019-02-20T12:31:53.655Z,13.39
2019-02-20T12:34:41.429Z,13.63
2019-02-20T12:37:28.959Z,13.77
2019-02-20T12:40:16.385Z,13.91
2019-02-20T12:43:04.111Z,13.83
2019-02-20T12:45:51.231Z,13.85
2019-02-20T12:48:39.104Z,13.83
2019-02-20T12:51:26.505Z,13.82
2019-02-20T12:54:14.218Z,13.77
2019-02-20T12:57:01.442Z,14.10
2019-02-20T12:59:48.968Z,13.92
2019-02-20T13:02:37.005Z,13.89
2019-02-20T13:05:24.425Z,14.01
2019-02-20T13:08:11.770Z,14.15
2019-02-20T13:10:59.079Z,14.00
2019-02-20T13:13:46.187Z,13.83
2019-02-20T13:16:34.124Z,13.91
2019-02-20T13:19:21.445Z,13.80
2019-02-20T13:22:08.663Z,13.65
2019-02-20T13:24:56.293Z,13.80
2019-02-20T13:27:44.130Z,13.96
2019-02-20T13:30:31.755Z,13.35
2019-02-20T13:33:19.429Z,13.23
2019-02-20T13:36:06.910Z,12.98
2019-02-20T13:38:54.344Z,13.14
2019-02-20T13:41:41.867Z,12.90
2019-02-20T13:44:29.387Z,13.01
2019-02-20T13:47:17.221Z,13.12
2019-02-20T13:50:07.555Z,13.38
2019-02-20T13:52:54.630Z,13.68
2019-02-20T13:55:42.696Z,13.81
2019-02-20T13:58:30.051Z,13.82
2019-02-20T14:01:25.301Z,13.90
2019-02-20T14:04:13.350Z,13.78
2019-02-20T14:07:01.170Z,13.79
2019-02-20T14:09:48.802Z,13.60
2019-02-20T14:12:36.636Z,13.78
2019-02-20T14:15:24.374Z,13.44
2019-02-20T14:18:11.950Z,13.13
2019-02-20T14:20:59.318Z,13.31
2019-02-20T14:23:47.048Z,13.33
2019-02-20T14:26:34.982Z,13.06
2019-02-20T14:29:22.115Z,13.43
2019-02-20T14:32:11.064Z,13.65
2019-02-20T14:34:58.484Z,14.04
2019-02-20T14:37:46.113Z,13.95
2019-02-20T14:40:33.644Z,14.11
2019-02-20T14:43:21.072Z,14.07
2019-02-20T14:46:08.618Z,14.22
2019-02-20T14:48:56.219Z,13.91
2019-02-20T14:51:44.054Z,14.01
2019-02-20T14:54:31.479Z,13.89
2019-02-20T14:57:19.780Z,13.96
2019-02-20T15:00:10.426Z,13.77
2019-02-20T15:02:57.539Z,13.89
2019-02-20T15:05:45.168Z,14.00
2019-02-20T15:08:33.153Z,13.70
2019-02-20T15:11:20.634Z,13.96
2019-02-20T15:14:08.261Z,14.10
2019-02-20T15:16:55.686Z,14.07
2019-02-20T15:19:43.015Z,13.83
2019-02-20T15:22:30.328Z,13.75
2019-02-20T15:25:17.610Z,13.79
2019-02-20T15:28:05.391Z,13.86
2019-02-20T15:30:52.402Z,13.70
2019-02-20T15:33:41.050Z,13.66
2019-02-20T15:36:28.474Z,13.70
2019-02-20T15:39:16.408Z,13.68
2019-02-20T15:42:04.038Z,13.56
2019-02-20T15:44:51.157Z,13.55
2019-02-20T15:47:38.990Z,13.63
2019-02-20T15:50:26.225Z,13.32
2019-02-20T15:53:13.633Z,13.26
2019-02-20T15:56:00.954Z,13.16
2019-02-20T15:58:48.072Z,13.11
2019-02-20T16:01:35.596Z,13.15
2019-02-20T16:04:23.636Z,13.15
2019-02-20T16:07:11.165Z,13.09
2019-02-20T16:09:58.637Z,13.11
2019-02-20T16:12:46.136Z,13.15
2019-02-20T16:15:34.460Z,13.15
2019-02-20T16:18:21.680Z,13.13
2019-02-20T16:21:08.909Z,13.09
2019-02-20T16:23:56.429Z,13.14
2019-02-20T16:26:43.952Z,13.14
2019-02-20T16:29:31.477Z,13.11
2019-02-20T16:32:18.900Z,13.09
2019-02-20T16:35:08.443Z,13.09
2019-02-20T16:37:55.912Z,13.12
2019-02-20T16:40:43.429Z,13.11
2019-02-20T16:43:30.749Z,12.99
2019-02-20T16:46:17.970Z,12.98
2019-02-20T16:49:05.600Z,12.94
2019-02-20T16:51:52.818Z,12.90
2019-02-20T16:54:40.149Z,12.84
2019-02-20T16:57:28.176Z,12.80
2019-02-20T17:00:18.049Z,12.78
2019-02-20T17:03:05.823Z,12.71
2019-02-20T17:05:52.808Z,12.70
2019-02-20T17:08:40.471Z,12.70
2019-02-20T17:11:28.064Z,12.68
2019-02-20T17:14:15.691Z,12.64
2019-02-20T17:17:03.436Z,12.59
2019-02-20T17:19:51.259Z,12.56
2019-02-20T17:22:39.400Z,12.46
2019-02-20T17:25:27.232Z,12.43
2019-02-20T17:28:15.068Z,12.43
2019-02-20T17:31:02.596Z,12.40
2019-02-20T17:33:50.119Z,12.38
2019-02-20T17:36:37.443Z,12.32
2019-02-20T17:39:24.977Z,12.20
2019-02-20T17:42:12.375Z,12.23
2019-02-20T17:45:00.223Z,12.19
2019-02-20T17:47:47.857Z,12.20
2019-02-20T17:50:35.585Z,12.15
2019-02-20T17:53:24.609Z,12.11
2019-02-20T17:56:12.179Z,12.11
2019-02-20T17:59:00.830Z,12.07
2019-02-20T18:01:47.842Z,12.06
2019-02-20T18:04:35.991Z,12.04
2019-02-20T18:07:23.306Z,11.98
2019-02-20T18:10:11.343Z,11.95
2019-02-20T18:12:58.668Z,11.87
2019-02-20T18:15:46.603Z,11.89
2019-02-20T18:18:34.150Z,11.86
2019-02-20T18:21:21.250Z,11.82
2019-02-20T18:24:08.877Z,11.81
2019-02-20T18:26:57.866Z,11.81
2019-02-20T18:29:45.060Z,11.78
2019-02-20T18:32:32.379Z,11.73
2019-02-20T18:35:20.012Z,11.72
2019-02-20T18:38:07.533Z,11.68
2019-02-20T18:40:55.981Z,11.69
2019-02-20T18:43:44.533Z,11.65
2019-02-20T18:46:32.160Z,11.60
2019-02-20T18:49:21.134Z,11.57
2019-02-20T18:52:08.545Z,11.54
2019-02-20T18:55:05.336Z,11.57
2019-02-20T18:57:45.234Z,11.55
2019-02-20T19:00:32.863Z,11.48
2019-02-20T19:03:20.492Z,11.41
2019-02-20T19:06:08.047Z,11.33
2019-02-20T19:08:57.033Z,11.33
2019-02-20T19:12:10.322Z,11.28
2019-02-20T19:15:06.440Z,11.30
2019-02-20T19:18:14.467Z,11.23
2019-02-20T19:21:14.157Z,11.16
2019-02-20T19:24:29.239Z,11.10
2019-02-20T19:27:25.366Z,10.96
2019-02-20T19:30:24.458Z,10.84
2019-02-20T19:33:24.072Z,10.84
2019-02-20T19:36:17.353Z,10.75
2019-02-20T19:39:26.990Z,10.67
2019-02-20T19:42:26.064Z,10.64
2019-02-20T19:45:31.617Z,10.59
2019-02-20T19:48:22.123Z,10.33
2019-02-20T19:51:29.619Z,10.26
2019-02-20T19:54:30.831Z,10.40
2019-02-20T19:57:49.002Z,10.40
2019-02-20T20:00:54.347Z,10.32
2019-02-20T20:03:50.898Z,10.39
2019-02-20T20:06:50.216Z,10.38
2019-02-20T20:09:57.372Z,10.40
2019-02-20T20:12:50.343Z,10.40
2019-02-20T20:15:53.016Z,10.35
2019-02-20T20:18:46.492Z,10.32
2019-02-20T20:21:37.516Z,10.29
2019-02-20T20:24:30.851Z,10.30
2019-02-20T20:27:39.771Z,10.15
2019-02-20T20:30:51.720Z,10.20
2019-02-20T20:33:50.793Z,10.11
2019-02-20T20:37:02.673Z,10.03
2019-02-20T20:39:54.467Z,10.03
2019-02-20T20:42:51.896Z,9.93
2019-02-20T20:45:44.922Z,10.01
2019-02-20T20:48:47.387Z,10.05
2019-02-20T20:52:00.654Z,10.08
2019-02-20T20:55:26.869Z,10.00
2019-02-20T20:58:35.555Z,9.87
2019-02-20T21:01:43.991Z,9.76
2019-02-20T21:04:40.220Z,9.80
2019-02-20T21:07:36.961Z,9.83
2019-02-20T21:10:48.856Z,9.84
2019-02-20T21:13:45.092Z,9.85
2019-02-20T21:16:44.579Z,9.81
2019-02-20T21:19:47.084Z,9.77
2019-02-20T21:22:50.063Z,9.66
2019-02-20T21:25:43.528Z,9.59
2019-02-20T21:28:37.112Z,9.55
2019-02-20T21:31:53.684Z,9.56
2019-02-20T21:34:56.081Z,9.49
2019-02-20T21:38:16.174Z,9.43
2019-02-20T21:41:25.203Z,9.45
2019-02-20T21:44:25.118Z,9.40
2019-02-20T21:47:18.787Z,9.38
2019-02-20T21:50:21.776Z,9.29
2019-02-20T21:53:14.831Z,9.28
2019-02-20T21:56:23.350Z,9.30
2019-02-20T21:59:13.949Z,9.18
2019-02-20T22:02:17.144Z,9.25
2019-02-20T22:05:22.883Z,9.25
2019-02-20T22:08:48.722Z,9.29
2019-02-20T22:12:09.425Z,9.26
2019-02-20T22:15:18.232Z,9.18
2019-02-20T22:18:20.624Z,9.12
2019-02-20T22:21:27.693Z,9.14
2019-02-20T22:24:27.322Z,9.13
2019-02-20T22:27:35.843Z,9.11
2019-02-20T22:30:44.663Z,9.11
2019-02-20T22:33:58.305Z,9.07
2019-02-20T22:37:06.719Z,9.02
2019-02-20T22:40:00.699Z,9.02
2019-02-20T22:43:14.804Z,9.04
2019-02-20T22:46:14.147Z,8.97
2019-02-20T22:49:07.819Z,8.96
2019-02-20T22:52:00.879Z,8.93
2019-02-20T22:55:16.975Z,9.02
2019-02-20T22:58:11.054Z,9.01
2019-02-20T23:01:10.049Z,8.95
2019-02-20T23:04:13.140Z,8.82
2019-02-20T23:07:25.507Z,8.94
2019-02-20T23:10:40.111Z,9.05
2019-02-20T23:13:36.645Z,8.99
2019-02-20T23:16:24.381Z,8.85
2019-02-20T23:19:11.699Z,8.85
2019-02-20T23:21:59.431Z,9.01
2019-02-20T23:24:46.957Z,9.07
2019-02-20T23:27:34.488Z,9.10
2019-02-20T23:30:22.011Z,9.21
2019-02-20T23:33:09.536Z,9.25
2019-02-20T23:35:56.961Z,9.32
2019-02-20T23:38:44.490Z,9.29
2019-02-20T23:41:32.119Z,9.31
2019-02-20T23:44:19.952Z,9.27
2019-02-20T23:47:07.420Z,9.31
2019-02-20T23:49:56.420Z,9.37
2019-02-20T23:52:43.453Z,9.37
2019-02-20T23:55:30.980Z,9.43
2019-02-20T23:58:18.813Z,9.50
